Time;durP1;ratioP1;P1;durP2;ratioP2;P2;SDS_P1;SDS_P2;PMS_P1;PMS_P2;Temp;Humidity;BMP_temperature;BMP_pressure;BME280_temperature;BME280_humidity;BME280_pressure;Samples;Min_cycle;Max_cycle;Signal;HPM_P1;HPM_P2
2021/03/06 00:01:28;;;;;;;24.33;9.38;;;;;;;-0.57;66.06;103310.56;5084067;28;20043;-70
2021/03/06 00:03:53;;;;;;;23.02;9.13;;;;;;;-0.55;66.20;103309.94;5102639;28;20112;-70
2021/03/06 00:06:18;;;;;;;22.67;8.82;;;;;;;-0.49;65.74;103304.38;5085416;28;20016;-71
2021/03/06 00:08:44;;;;;;;23.15;9.02;;;;;;;-0.50;65.91;103307.75;5092759;28;20051;-71
2021/03/06 00:11:09;;;;;;;24.40;9.25;;;;;;;-0.49;65.94;103304.38;5101001;28;20067;-70
2021/03/06 00:13:36;;;;;;;23.83;9.43;;;;;;;-0.53;66.89;103297.06;5103865;28;20023;-70
2021/03/06 00:16:01;;;;;;;23.27;9.18;;;;;;;-0.55;66.65;103309.03;5102124;28;20078;-70
2021/03/06 00:18:27;;;;;;;24.90;10.27;;;;;;;-0.56;66.91;103310.69;5092433;28;20491;-63
2021/03/06 00:20:52;;;;;;;24.88;10.75;;;;;;;-0.54;66.70;103303.97;5102061;28;20028;-63
2021/03/06 00:23:18;;;;;;;24.17;9.73;;;;;;;-0.55;66.61;103304.72;5104390;28;20506;-64
2021/03/06 00:25:44;;;;;;;22.02;9.20;;;;;;;-0.55;67.08;103303.84;5100881;28;20020;-63
2021/03/06 00:28:09;;;;;;;23.05;9.77;;;;;;;-0.54;66.69;103300.44;5096983;28;20079;-63
2021/03/06 00:30:35;;;;;;;25.15;9.88;;;;;;;-0.56;66.76;103297.69;5092435;28;20054;-63
2021/03/06 00:33:01;;;;;;;24.60;10.20;;;;;;;-0.54;67.10;103305.63;5103253;28;20024;-65
2021/03/06 00:35:27;;;;;;;24.08;10.00;;;;;;;-0.56;66.84;103309.78;5102542;28;20079;-63
2021/03/06 00:37:52;;;;;;;24.70;10.20;;;;;;;-0.63;66.79;103316.13;5101657;28;20457;-64
2021/03/06 00:40:17;;;;;;;23.77;9.98;;;;;;;-0.65;67.21;103309.00;5103711;28;20024;-63
2021/03/06 00:42:43;;;;;;;23.98;9.70;;;;;;;-0.67;67.37;103311.44;5092523;28;20103;-63
2021/03/06 00:45:10;;;;;;;24.92;9.30;;;;;;;-0.67;67.76;103310.53;5104237;28;20024;-63
2021/03/06 00:47:36;;;;;;;23.55;8.82;;;;;;;-0.64;68.02;103315.97;5101048;28;20016;-63
2021/03/06 00:50:10;;;;;;;22.42;8.65;;;;;;;-0.69;67.35;103314.69;5095543;28;20063;-63
2021/03/06 00:52:35;;;;;;;26.45;9.32;;;;;;;-0.83;67.86;103305.63;5107264;28;20051;-64
2021/03/06 00:55:00;;;;;;;23.70;9.32;;;;;;;-0.92;68.61;103304.06;5105565;28;20052;-64
2021/03/06 00:57:26;;;;;;;24.67;9.48;;;;;;;-1.00;68.74;103302.44;5096154;28;20470;-64
2021/03/06 00:59:51;;;;;;;23.35;8.98;;;;;;;-1.05;68.31;103306.28;5105595;28;20048;-67
2021/03/06 01:02:16;;;;;;;23.42;9.10;;;;;;;-1.08;68.33;103301.75;5107705;28;20518;-66
2021/03/06 01:04:41;;;;;;;24.95;9.30;;;;;;;-1.08;68.41;103293.97;5096016;28;20485;-65
2021/03/06 01:07:07;;;;;;;23.38;8.75;;;;;;;-1.12;68.64;103302.25;5095620;28;20020;-65
2021/03/06 01:09:32;;;;;;;23.83;9.50;;;;;;;-1.17;68.99;103302.59;5106750;28;20032;-66
2021/03/06 01:11:57;;;;;;;24.10;8.63;;;;;;;-1.16;68.74;103292.34;5105997;28;20027;-64
2021/03/06 01:14:23;;;;;;;22.65;8.65;;;;;;;-1.16;68.43;103299.22;5095745;28;20078;-65
2021/03/06 01:16:48;;;;;;;23.55;9.00;;;;;;;-1.27;68.44;103293.97;5095478;28;20028;-65
2021/03/06 01:19:14;;;;;;;23.17;8.50;;;;;;;-1.32;68.67;103294.31;5077629;28;20119;-65
2021/03/06 01:21:39;;;;;;;22.65;9.20;;;;;;;-1.41;68.64;103287.50;5099765;28;20452;-65
2021/03/06 01:24:05;;;;;;;25.58;9.05;;;;;;;-1.45;69.07;103295.75;5106948;28;20084;-68
2021/03/06 01:26:30;;;;;;;23.00;8.75;;;;;;;-1.47;69.11;103293.78;5105149;28;20477;-64
2021/03/06 01:28:55;;;;;;;24.35;9.30;;;;;;;-1.47;68.94;103292.13;5095512;28;20039;-65
2021/03/06 01:31:21;;;;;;;24.52;9.52;;;;;;;-1.52;68.92;103293.38;5095409;28;20066;-64
2021/03/06 01:33:46;;;;;;;25.23;8.63;;;;;;;-1.54;69.36;103297.53;5095114;28;20028;-65
2021/03/06 01:36:12;;;;;;;23.48;8.85;;;;;;;-1.54;69.39;103289.75;5103612;28;20111;-64
2021/03/06 01:38:37;;;;;;;22.52;8.63;;;;;;;-1.60;69.33;103290.06;5106904;28;20505;-66
2021/03/06 01:41:02;;;;;;;24.20;9.32;;;;;;;-1.65;69.12;103295.59;5104560;28;20028;-65
2021/03/06 01:43:28;;;;;;;24.15;9.23;;;;;;;-1.80;69.66;103288.22;5105623;28;20024;-65
2021/03/06 01:45:53;;;;;;;23.48;9.20;;;;;;;-1.88;70.11;103290.84;5105979;28;20034;-64
2021/03/06 01:48:19;;;;;;;22.85;9.00;;;;;;;-1.92;70.41;103292.28;5104188;28;20056;-65
2021/03/06 01:50:45;;;;;;;23.80;8.57;;;;;;;-1.89;70.24;103286.44;5106730;28;20031;-66
2021/03/06 01:53:12;;;;;;;25.02;9.23;;;;;;;-1.91;70.69;103285.38;5099358;28;20040;-64
2021/03/06 01:55:42;;;;;;;22.63;8.48;;;;;;;-1.98;70.88;103286.47;5094644;28;20062;-66
2021/03/06 01:58:08;;;;;;;21.88;8.65;;;;;;;-2.01;70.99;103286.19;5106353;28;20080;-64
2021/03/06 02:00:33;;;;;;;22.60;9.15;;;;;;;-2.06;70.57;103287.47;5103790;28;20024;-64
2021/03/06 02:03:00;;;;;;;21.98;9.00;;;;;;;-2.14;71.11;103292.81;5094582;28;20016;-65
2021/03/06 02:05:26;;;;;;;23.92;9.10;;;;;;;-2.17;70.58;103291.59;5104455;28;20444;-64
2021/03/06 02:07:51;;;;;;;24.10;9.13;;;;;;;-2.16;71.10;103296.94;5105739;28;20439;-65
2021/03/06 02:10:25;;;;;;;21.83;8.63;;;;;;;-2.16;70.47;103293.44;5094589;28;20107;-64
2021/03/06 02:13:05;;;;;;;21.75;8.68;;;;;;;-2.22;70.58;103288.56;5091735;28;20031;-65
2021/03/06 02:16:05;;;;;;;23.17;9.07;;;;;;;-2.28;69.86;103291.50;5096328;28;20032;-65
2021/03/06 02:18:39;;;;;;;23.00;8.68;;;;;;;-2.33;71.64;103292.75;5103142;28;20032;-64
2021/03/06 02:21:46;;;;;;;23.58;8.80;;;;;;;-2.31;70.16;103292.91;5094378;28;20028;-64
2021/03/06 02:24:40;;;;;;;23.45;8.00;;;;;;;-2.27;70.32;103287.25;5104535;28;20024;-64
2021/03/06 02:27:22;;;;;;;22.48;8.45;;;;;;;-2.23;70.92;103294.53;5102629;28;20393;-64
2021/03/06 02:30:03;;;;;;;21.20;7.97;;;;;;;-2.22;70.82;103286.00;5102980;28;20465;-63
2021/03/06 02:32:34;;;;;;;21.60;7.90;;;;;;;-2.21;71.81;103290.41;5100382;28;20035;-63
2021/03/06 02:35:09;;;;;;;23.50;8.10;;;;;;;-2.19;71.79;103299.22;5105222;28;20032;-63
2021/03/06 02:38:09;;;;;;;23.60;8.30;;;;;;;-2.17;70.37;103289.00;5094088;28;20043;-62
2021/03/06 02:40:37;;;;;;;21.77;7.68;;;;;;;-2.17;71.88;103284.75;5021743;28;20044;-63
2021/03/06 02:43:04;;;;;;;22.63;7.70;;;;;;;-2.19;71.97;103281.09;5011792;28;20103;-63
2021/03/06 02:45:30;;;;;;;22.10;7.90;;;;;;;-2.19;72.00;103282.78;5020889;28;20065;-63
2021/03/06 02:47:57;;;;;;;22.35;7.85;;;;;;;-2.22;71.98;103282.50;5022944;28;20408;-62
2021/03/06 02:50:22;;;;;;;22.40;7.85;;;;;;;-2.24;71.96;103274.56;5019773;28;20111;-64
2021/03/06 02:52:47;;;;;;;22.85;7.95;;;;;;;-2.29;72.29;103275.81;5023170;28;20136;-63
2021/03/06 02:55:13;;;;;;;21.60;7.78;;;;;;;-2.32;72.51;103272.94;5018568;28;20033;-62
2021/03/06 02:58:06;;;;;;;22.55;7.72;;;;;;;-2.34;71.73;103277.97;5022281;28;20053;-63
2021/03/06 03:00:41;;;;;;;21.60;7.88;;;;;;;-2.37;71.66;103281.97;5016923;28;20412;-63
2021/03/06 03:03:13;;;;;;;23.80;8.32;;;;;;;-2.43;71.62;103276.16;5017105;28;20121;-63
2021/03/06 03:05:59;;;;;;;22.52;8.18;;;;;;;-2.46;71.12;103275.13;5022442;28;20120;-62
2021/03/06 03:08:37;;;;;;;23.05;8.38;;;;;;;-2.49;72.14;103271.28;5011510;28;20461;-64
2021/03/06 03:11:07;;;;;;;24.23;8.18;;;;;;;-2.53;72.11;103275.28;5015412;28;20467;-65
2021/03/06 03:13:44;;;;;;;22.05;8.07;;;;;;;-2.55;72.03;103266.47;5022914;28;20030;-63
2021/03/06 03:16:15;;;;;;;23.35;8.00;;;;;;;-2.58;72.36;103263.56;5060877;28;20044;-63
2021/03/06 03:18:45;;;;;;;24.48;8.38;;;;;;;-2.63;72.61;103272.56;5103866;28;20104;-69
2021/03/06 03:21:14;;;;;;;23.25;8.25;;;;;;;-2.69;72.61;103267.72;5102834;28;20073;-63
2021/03/06 03:23:43;;;;;;;24.10;8.40;;;;;;;-2.72;72.98;103271.66;5104065;28;20027;-63
2021/03/06 03:26:14;;;;;;;23.20;8.10;;;;;;;-2.78;72.54;103265.91;5093067;28;20050;-63
2021/03/06 03:28:42;;;;;;;23.42;7.97;;;;;;;-2.83;72.99;103279.31;5102675;28;20024;-62
2021/03/06 03:31:09;;;;;;;23.27;8.63;;;;;;;-2.85;73.12;103270.50;5104243;28;20024;-65
2021/03/06 03:33:36;;;;;;;24.45;9.07;;;;;;;-2.82;74.01;103269.88;5092964;28;20431;-70
2021/03/06 03:36:03;;;;;;;22.42;8.63;;;;;;;-2.83;73.78;103268.94;5093050;28;20031;-70
2021/03/06 03:38:29;;;;;;;23.63;8.50;;;;;;;-2.85;73.35;103267.91;5097032;28;20093;-70
2021/03/06 03:40:55;;;;;;;23.17;8.27;;;;;;;-2.88;73.53;103271.88;5104649;28;20038;-71
2021/03/06 03:43:23;;;;;;;21.70;8.05;;;;;;;-2.93;74.05;103270.50;5102807;28;20113;-70
2021/03/06 03:45:51;;;;;;;24.98;8.63;;;;;;;-2.98;75.03;103263.19;5092678;28;20539;-70
2021/03/06 03:48:16;;;;;;;23.75;9.32;;;;;;;-3.00;74.95;103268.97;5092721;28;20077;-71
2021/03/06 03:50:41;;;;;;;24.48;8.70;;;;;;;-3.02;74.74;103268.81;5092812;28;20036;-70
2021/03/06 03:53:07;;;;;;;24.38;8.77;;;;;;;-3.05;74.99;103257.28;5101189;28;20062;-71
2021/03/06 03:55:32;;;;;;;23.10;8.63;;;;;;;-3.10;75.23;103261.06;5104603;28;20111;-71
2021/03/06 03:57:58;;;;;;;24.08;8.85;;;;;;;-3.16;75.00;103258.78;5101367;28;20099;-71
2021/03/06 04:00:23;;;;;;;24.70;8.82;;;;;;;-3.19;75.27;103264.59;5103780;28;20114;-71
2021/03/06 04:02:49;;;;;;;23.13;8.48;;;;;;;-3.23;75.24;103267.66;5102359;28;20069;-70
2021/03/06 04:05:15;;;;;;;21.80;8.20;;;;;;;-3.24;74.76;103273.56;5102697;28;20463;-70
2021/03/06 04:07:48;;;;;;;21.75;8.82;;;;;;;-3.24;74.46;103265.81;5103774;28;20020;-70
2021/03/06 04:10:15;;;;;;;22.63;8.25;;;;;;;-3.25;74.76;103260.47;5102081;28;20021;-70
2021/03/06 04:12:41;;;;;;;22.73;8.93;;;;;;;-3.27;75.87;103267.19;5103909;28;20062;-62
2021/03/06 04:15:08;;;;;;;22.10;8.32;;;;;;;-3.31;75.83;103268.53;5101437;28;20016;-63
2021/03/06 04:17:34;;;;;;;23.08;9.18;;;;;;;-3.28;76.01;103271.44;5104625;28;20072;-62
2021/03/06 04:20:00;;;;;;;25.23;8.60;;;;;;;-3.28;75.30;103268.84;5092894;28;20435;-62
2021/03/06 04:22:25;;;;;;;24.33;8.63;;;;;;;-3.31;74.81;103273.72;5093061;28;20023;-63
2021/03/06 04:24:51;;;;;;;24.27;8.32;;;;;;;-3.37;74.49;103267.94;5107303;28;20024;-63
2021/03/06 04:27:16;;;;;;;23.10;9.00;;;;;;;-3.40;74.80;103275.41;5106742;28;20016;-62
2021/03/06 04:29:41;;;;;;;22.67;8.57;;;;;;;-3.44;75.06;103274.16;5096716;28;20039;-62
2021/03/06 04:32:07;;;;;;;21.80;8.63;;;;;;;-3.47;75.35;103279.03;5105422;28;20073;-63
2021/03/06 04:34:32;;;;;;;22.02;8.90;;;;;;;-3.49;75.62;103283.16;5108527;28;20032;-63
2021/03/06 04:36:57;;;;;;;22.55;8.52;;;;;;;-3.53;75.46;103291.38;5104847;28;20052;-63
2021/03/06 04:39:23;;;;;;;22.98;8.85;;;;;;;-3.61;75.60;103292.25;5088957;28;20572;-62
2021/03/06 04:41:48;;;;;;;24.85;8.73;;;;;;;-3.64;75.49;103290.31;5106282;28;20019;-63
2021/03/06 04:44:14;;;;;;;25.17;8.88;;;;;;;-3.63;75.64;103301.53;5105946;28;20427;-62
2021/03/06 04:46:40;;;;;;;24.90;8.88;;;;;;;-3.58;76.01;103301.25;5107252;28;20026;-62
2021/03/06 04:49:05;;;;;;;22.05;8.70;;;;;;;-3.60;75.88;103297.56;5096180;28;20024;-62
2021/03/06 04:51:30;;;;;;;23.80;8.55;;;;;;;-3.60;75.37;103299.25;5104820;28;20343;-69
2021/03/06 04:53:56;;;;;;;22.23;8.85;;;;;;;-3.62;75.49;103299.09;5107371;28;20051;-70
2021/03/06 04:56:23;;;;;;;22.95;8.75;;;;;;;-3.65;75.58;103295.31;5105412;28;20024;-69
2021/03/06 04:58:48;;;;;;;23.17;8.80;;;;;;;-3.69;75.56;103287.22;5096155;28;20045;-69
2021/03/06 05:01:13;;;;;;;22.58;8.48;;;;;;;-3.72;75.54;103296.34;5078009;28;20063;-67
2021/03/06 05:03:38;;;;;;;21.33;8.13;;;;;;;-3.76;75.31;103299.38;5104942;28;20447;-69
2021/03/06 05:06:04;;;;;;;23.60;8.80;;;;;;;-3.78;75.40;103303.50;5089110;28;20027;-69
2021/03/06 05:08:29;;;;;;;24.20;8.77;;;;;;;-3.82;75.48;103310.00;5096249;28;20476;-69
2021/03/06 05:10:55;;;;;;;24.50;8.90;;;;;;;-3.85;75.23;103312.28;5088266;28;20505;-69
2021/03/06 05:13:20;;;;;;;22.23;7.93;;;;;;;-3.88;75.50;103299.94;5105384;28;20019;-69
2021/03/06 05:15:45;;;;;;;22.65;8.80;;;;;;;-3.91;75.43;103304.81;5105721;28;20421;-69
2021/03/06 05:18:11;;;;;;;24.07;9.17;;;;;;;-3.89;76.15;103304.97;5106612;28;20523;-69
2021/03/06 05:20:36;;;;;;;23.48;9.48;;;;;;;-3.90;76.25;103306.66;5104191;28;20023;-70
2021/03/06 05:23:01;;;;;;;25.20;9.00;;;;;;;-3.92;75.63;103310.72;5107565;28;20038;-69
2021/03/06 05:25:26;;;;;;;23.25;8.95;;;;;;;-3.94;75.85;103307.09;5104273;28;20070;-69
2021/03/06 05:27:53;;;;;;;23.73;8.45;;;;;;;-3.93;75.36;103308.00;5095748;28;20055;-70
2021/03/06 05:30:20;;;;;;;23.80;8.47;;;;;;;-3.92;75.69;103307.25;5105507;28;20038;-70
2021/03/06 05:32:45;;;;;;;23.30;8.67;;;;;;;-3.94;76.20;103308.78;5105508;28;20027;-70
2021/03/06 05:35:11;;;;;;;21.83;8.32;;;;;;;-3.95;75.82;103313.00;5103868;28;20025;-70
2021/03/06 05:37:36;;;;;;;24.80;10.27;;;;;;;-3.99;75.73;103316.06;5106688;28;20031;-70
2021/03/06 05:40:02;;;;;;;25.40;10.43;;;;;;;-4.04;75.84;103314.66;5103760;28;20028;-71
2021/03/06 05:42:28;;;;;;;24.95;9.93;;;;;;;-4.08;76.16;103323.78;5095198;28;20047;-71
2021/03/06 05:44:56;;;;;;;25.48;10.05;;;;;;;-4.12;75.98;103312.94;5094816;28;20020;-70
2021/03/06 05:47:22;;;;;;;22.80;8.83;;;;;;;-4.13;76.75;103324.06;5105840;28;20096;-70
2021/03/06 05:49:47;;;;;;;23.27;8.87;;;;;;;-4.14;77.06;103311.88;5105079;28;20027;-70
2021/03/06 05:52:17;;;;;;;23.00;8.30;;;;;;;-4.17;76.39;103319.31;5094697;28;20403;-69
2021/03/06 05:54:49;;;;;;;23.85;8.80;;;;;;;-4.22;76.68;103316.25;5104351;28;20030;-70
2021/03/06 05:57:15;;;;;;;23.63;9.00;;;;;;;-4.23;77.31;103320.50;5105447;28;20028;-70
2021/03/06 05:59:41;;;;;;;22.10;8.73;;;;;;;-4.21;77.02;103315.50;5094950;28;20227;-70
2021/03/06 06:02:07;;;;;;;23.63;8.93;;;;;;;-4.23;77.34;103314.44;5094858;28;20492;-70
2021/03/06 06:04:32;;;;;;;24.00;8.83;;;;;;;-4.22;76.91;103321.44;5103321;28;20024;-70
2021/03/06 06:07:01;;;;;;;23.27;8.77;;;;;;;-4.22;76.70;103321.44;5106299;28;20530;-70
2021/03/06 06:09:26;;;;;;;23.38;8.65;;;;;;;-4.26;76.67;103322.78;5103346;28;20061;-62
2021/03/06 06:11:52;;;;;;;23.07;8.37;;;;;;;-4.31;76.78;103321.41;5094480;28;20044;-63
2021/03/06 06:14:17;;;;;;;23.17;9.20;;;;;;;-4.28;76.87;103326.88;5104579;28;20028;-64
2021/03/06 06:16:43;;;;;;;23.47;8.90;;;;;;;-4.27;77.09;103325.19;5105251;28;20031;-62
2021/03/06 06:19:08;;;;;;;23.97;8.90;;;;;;;-4.26;76.81;103327.03;5094558;28;20364;-63
2021/03/06 06:21:46;;;;;;;23.20;8.77;;;;;;;-4.23;76.47;103338.59;5102790;28;20024;-63
2021/03/06 06:24:16;;;;;;;23.17;8.48;;;;;;;-4.21;76.99;103342.25;5082962;28;20016;-63
2021/03/06 06:27:05;;;;;;;23.97;8.87;;;;;;;-4.17;76.27;103346.06;5105410;28;20030;-63
2021/03/06 06:29:41;;;;;;;23.00;8.80;;;;;;;-4.17;76.43;103342.56;5098595;28;20374;-62
2021/03/06 06:32:11;;;;;;;28.17;9.15;;;;;;;-4.17;76.73;103350.31;5099520;28;20545;-63
2021/03/06 06:34:38;;;;;;;26.10;9.77;;;;;;;-4.16;77.24;103352.16;5105836;28;20063;-63
2021/03/06 06:37:12;;;;;;;23.60;9.38;;;;;;;-4.13;76.76;103340.47;5103347;28;20043;-63
2021/03/06 06:39:39;;;;;;;24.67;10.43;;;;;;;-4.08;77.86;103341.88;5099810;28;20038;-65
2021/03/06 06:42:04;;;;;;;25.63;10.02;;;;;;;-4.09;77.09;103349.44;5105965;28;20055;-62
2021/03/06 06:44:31;;;;;;;26.98;10.70;;;;;;;-4.11;76.92;103341.53;5102200;28;20067;-62
2021/03/06 06:46:57;;;;;;;23.95;10.15;;;;;;;-4.12;77.18;103349.13;5093601;28;20020;-62
2021/03/06 06:49:23;;;;;;;24.42;10.00;;;;;;;-4.10;77.30;103347.63;5104867;28;20028;-63
2021/03/06 06:52:05;;;;;;;24.20;10.27;;;;;;;-4.06;76.71;103352.38;5103895;28;20023;-64
2021/03/06 06:54:32;;;;;;;24.52;9.90;;;;;;;-3.99;77.05;103352.25;5098253;28;20036;-64
2021/03/06 06:57:25;;;;;;;26.50;10.07;;;;;;;-3.94;76.61;103358.78;5089648;28;20020;-64
2021/03/06 06:59:58;;;;;;;24.70;10.27;;;;;;;-3.95;77.32;103354.34;5085967;28;20044;-70
2021/03/06 07:02:25;;;;;;;23.83;9.77;;;;;;;-3.94;77.71;103363.94;5090371;28;20034;-70
2021/03/06 07:05:02;;;;;;;24.00;9.52;;;;;;;-3.88;76.72;103364.56;5094003;28;20091;-72
2021/03/06 07:07:38;;;;;;;26.33;10.02;;;;;;;-3.82;76.89;103369.47;5090058;28;20059;-69
2021/03/06 07:10:07;;;;;;;24.45;9.55;;;;;;;-3.79;77.50;103368.88;5092876;28;20061;-70
2021/03/06 07:12:38;;;;;;;24.40;9.60;;;;;;;-3.77;77.64;103375.09;5092542;28;20023;-70
2021/03/06 07:15:17;;;;;;;23.52;9.73;;;;;;;-3.68;77.03;103376.06;5092906;28;20470;-69
2021/03/06 07:17:45;;;;;;;23.15;9.45;;;;;;;-3.61;77.72;103377.59;5093368;28;20390;-71
2021/03/06 07:20:32;;;;;;;25.88;9.80;;;;;;;-3.50;77.97;103383.09;5075312;28;20036;-71
2021/03/06 07:23:10;;;;;;;24.88;10.05;;;;;;;-3.30;78.09;103388.50;5091010;28;20067;-71
2021/03/06 07:25:36;;;;;;;23.40;10.07;;;;;;;-3.05;77.76;103389.28;5073937;28;20023;-71
2021/03/06 07:28:01;;;;;;;23.58;10.30;;;;;;;-2.89;77.17;103382.28;5093214;28;20606;-71
2021/03/06 07:30:26;;;;;;;24.98;10.40;;;;;;;-2.73;76.89;103389.88;5091785;28;20064;-71
2021/03/06 07:32:55;;;;;;;24.65;10.60;;;;;;;-2.54;76.91;103392.63;5093968;28;20066;-72
2021/03/06 07:35:22;;;;;;;25.98;11.30;;;;;;;-2.37;76.90;103396.88;5092625;28;20107;-72
2021/03/06 07:37:50;;;;;;;28.42;12.40;;;;;;;-2.20;76.64;103395.94;5091930;28;20044;-72
2021/03/06 07:40:15;;;;;;;27.30;11.95;;;;;;;-2.02;76.46;103403.66;5091411;28;20084;-72
2021/03/06 07:42:52;;;;;;;25.45;12.15;;;;;;;-1.82;75.82;103403.88;5092615;28;20107;-72
2021/03/06 07:45:23;;;;;;;27.33;12.55;;;;;;;-1.67;76.30;103406.13;5101221;28;20040;-72
2021/03/06 07:48:00;;;;;;;28.40;12.60;;;;;;;-1.45;75.26;103406.44;5092301;28;20031;-72
2021/03/06 07:50:29;;;;;;;26.73;12.40;;;;;;;-1.32;74.88;103412.03;5097544;28;20089;-72
2021/03/06 07:52:56;;;;;;;30.10;13.98;;;;;;;-1.16;75.28;103413.47;5104155;28;20047;-72
2021/03/06 07:55:26;;;;;;;27.65;14.38;;;;;;;-1.00;75.12;103403.72;5092705;28;20028;-72
2021/03/06 07:58:11;;;;;;;30.95;14.10;;;;;;;-0.85;74.42;103401.59;5096838;28;20023;-72
2021/03/06 08:00:51;;;;;;;29.42;14.75;;;;;;;-0.66;74.71;103404.19;5101046;28;20472;-73
2021/03/06 08:03:26;;;;;;;32.20;16.30;;;;;;;-0.39;74.75;103408.38;5101506;28;20024;-63
2021/03/06 08:05:53;;;;;;;33.40;16.45;;;;;;;-0.26;74.69;103406.88;5097315;28;20375;-61
2021/03/06 08:08:45;;;;;;;33.55;16.75;;;;;;;0.01;74.05;103404.91;5096886;28;20050;-61
2021/03/06 08:11:15;;;;;;;30.40;15.60;;;;;;;0.15;73.53;103396.63;5097152;28;20440;-61
2021/03/06 08:13:40;;;;;;;30.70;15.93;;;;;;;0.38;73.87;103397.69;5102377;28;20031;-61
2021/03/06 08:16:24;;;;;;;31.17;15.27;;;;;;;0.64;72.99;103400.88;5092552;28;20390;-64
2021/03/06 08:18:55;;;;;;;31.05;14.50;;;;;;;0.93;72.49;103389.41;5096769;28;20070;-61
2021/03/06 08:21:31;;;;;;;30.50;13.75;;;;;;;1.20;72.11;103401.22;5096945;28;20024;-62
2021/03/06 08:24:12;;;;;;;29.08;12.80;;;;;;;1.37;71.47;103393.91;5098156;28;20024;-61
2021/03/06 08:26:41;;;;;;;29.23;13.00;;;;;;;1.48;70.54;103395.69;5102548;28;20048;-65
2021/03/06 08:29:25;;;;;;;27.42;12.65;;;;;;;1.73;70.30;103398.63;5102627;28;20077;-61
2021/03/06 08:32:03;;;;;;;27.00;12.30;;;;;;;2.03;70.32;103394.03;5096724;28;20031;-62
2021/03/06 08:34:33;;;;;;;27.13;12.93;;;;;;;2.03;69.16;103398.34;5098495;28;20016;-65
2021/03/06 08:37:16;;;;;;;26.33;11.55;;;;;;;2.01;69.78;103393.00;5103831;28;20028;-64
2021/03/06 08:39:50;;;;;;;28.55;10.60;;;;;;;2.11;68.82;103396.34;5092321;28;20028;-62
2021/03/06 08:42:20;;;;;;;25.30;10.35;;;;;;;2.13;69.10;103393.06;5103756;28;20035;-70
2021/03/06 08:44:46;;;;;;;25.38;9.50;;;;;;;2.26;68.07;103394.97;5101179;28;20020;-62
2021/03/06 08:47:21;;;;;;;24.23;10.10;;;;;;;2.44;67.61;103391.16;5092021;28;20043;-65
2021/03/06 08:49:48;;;;;;;26.75;11.52;;;;;;;2.66;66.24;103391.94;5103855;28;20031;-62
2021/03/06 08:52:13;;;;;;;26.80;12.70;;;;;;;2.78;66.74;103385.97;5101429;28;20126;-62
2021/03/06 08:54:40;;;;;;;24.42;10.43;;;;;;;2.89;66.40;103393.72;5102634;28;20510;-63
2021/03/06 08:57:21;;;;;;;25.40;10.80;;;;;;;3.10;65.49;103400.56;5102311;28;20027;-62
2021/03/06 08:59:47;;;;;;;26.17;9.27;;;;;;;3.35;64.91;103393.66;5091942;28;20335;-63
2021/03/06 09:02:17;;;;;;;23.05;9.00;;;;;;;3.78;64.52;103395.09;5101513;28;20061;-65
2021/03/06 09:04:43;;;;;;;22.75;8.70;;;;;;;4.17;63.60;103396.16;5098898;28;20025;-64
2021/03/06 09:07:50;;;;;;;23.45;8.07;;;;;;;4.46;63.75;103391.16;5103771;28;20024;-62
2021/03/06 09:10:33;;;;;;;21.92;7.57;;;;;;;4.99;62.32;103390.41;5099039;28;20046;-63
2021/03/06 09:13:18;;;;;;;25.38;7.43;;;;;;;5.42;62.03;103393.31;5104477;28;20058;-63
2021/03/06 09:16:01;;;;;;;23.58;7.15;;;;;;;5.91;58.73;103391.25;5085038;28;20105;-63
2021/03/06 09:18:34;;;;;;;23.17;6.80;;;;;;;6.42;59.16;103390.91;5104377;28;20028;-63
2021/03/06 09:21:11;;;;;;;21.70;6.82;;;;;;;6.55;55.81;103398.75;5095005;28;20080;-68
2021/03/06 09:23:44;;;;;;;22.98;7.50;;;;;;;6.52;56.79;103402.91;5099696;28;20024;-72
2021/03/06 09:26:21;;;;;;;21.75;7.53;;;;;;;6.13;57.11;103395.28;5104622;28;20039;-72
2021/03/06 09:28:49;;;;;;;20.33;7.30;;;;;;;6.20;55.78;103394.81;5085777;28;20131;-72
2021/03/06 09:31:20;;;;;;;21.75;7.20;;;;;;;6.55;54.15;103379.44;5099607;28;20032;-72
2021/03/06 09:33:45;;;;;;;21.27;7.47;;;;;;;6.80;53.22;103382.75;5100060;28;20032;-72
2021/03/06 09:36:14;;;;;;;23.23;7.28;;;;;;;7.19;52.34;103385.03;5107134;28;20534;-72
2021/03/06 09:38:42;;;;;;;21.65;6.80;;;;;;;7.29;53.38;103390.00;5103914;28;20378;-72
2021/03/06 09:41:08;;;;;;;22.13;7.00;;;;;;;7.20;51.73;103388.56;5106316;28;20037;-72
2021/03/06 09:43:35;;;;;;;22.02;7.07;;;;;;;7.22;52.01;103382.56;5086479;28;20043;-72
2021/03/06 09:46:03;;;;;;;22.45;7.25;;;;;;;7.54;51.18;103386.16;5105672;28;20035;-72
2021/03/06 09:48:29;;;;;;;21.02;6.60;;;;;;;8.06;50.72;103385.56;5104869;28;20523;-73
2021/03/06 09:50:58;;;;;;;21.98;6.63;;;;;;;8.47;47.87;103379.00;5095027;28;20028;-72
2021/03/06 09:53:28;;;;;;;20.95;6.55;;;;;;;8.88;47.53;103374.09;5076398;28;20047;-72
2021/03/06 09:56:12;;;;;;;19.58;6.28;;;;;;;9.17;48.40;103374.69;5104732;28;20445;-72
2021/03/06 09:58:39;;;;;;;21.55;6.90;;;;;;;9.37;46.42;103370.41;5103574;28;20020;-72
2021/03/06 10:01:16;;;;;;;21.15;6.00;;;;;;;9.54;46.79;103372.16;5094968;28;20386;-72
2021/03/06 10:03:42;;;;;;;19.42;5.95;;;;;;;10.02;44.15;103377.06;5102924;28;20066;-72
2021/03/06 10:06:10;;;;;;;20.38;6.10;;;;;;;10.54;42.24;103372.38;5106260;28;20036;-64
2021/03/06 10:08:42;;;;;;;19.90;6.30;;;;;;;11.05;42.81;103380.75;5103887;28;20015;-64
2021/03/06 10:11:08;;;;;;;;;;;;;;;11.64;44.22;103369.97;5104079;28;20136;-63
2021/03/06 10:13:34;;;;;;;18.42;4.55;;;;;;;12.13;38.45;103381.59;5106618;28;19954;-62
2021/03/06 10:16:00;;;;;;;20.92;4.65;;;;;;;12.44;37.97;103382.78;5103589;28;20471;-66
2021/03/06 10:18:27;;;;;;;17.02;4.30;;;;;;;12.64;36.74;103373.78;5105603;28;20020;-64
2021/03/06 10:20:52;;;;;;;16.73;4.07;;;;;;;12.98;35.73;103368.75;5102331;28;20046;-67
2021/03/06 10:23:34;;;;;;;18.25;3.83;;;;;;;13.23;36.63;103373.13;5094146;28;20471;-67
2021/03/06 10:26:23;;;;;;;15.45;3.45;;;;;;;13.60;35.62;103374.34;5104394;28;20087;-63
2021/03/06 10:28:52;;;;;;;16.98;3.50;;;;;;;13.85;33.25;103370.72;5099068;28;20131;-63
2021/03/06 10:31:38;;;;;;;14.40;3.47;;;;;;;14.33;33.64;103363.25;5104089;28;20038;-73
2021/03/06 10:34:21;;;;;;;14.27;3.42;;;;;;;14.75;33.74;103355.59;5099631;28;20020;-73
2021/03/06 10:37:16;;;;;;;15.60;3.65;;;;;;;15.48;32.05;103362.75;5092954;28;20032;-71
2021/03/06 10:39:55;;;;;;;15.30;3.47;;;;;;;15.25;31.78;103360.44;5097736;28;20421;-74
2021/03/06 10:42:46;;;;;;;15.98;3.38;;;;;;;15.63;31.97;103357.78;5105048;28;20027;-74
2021/03/06 10:45:26;;;;;;;16.50;3.10;;;;;;;16.43;30.78;103350.59;5099450;28;20028;-74
2021/03/06 10:47:55;;;;;;;17.27;3.08;;;;;;;16.87;27.67;103352.31;5103947;28;20020;-73
2021/03/06 10:50:22;;;;;;;14.55;3.40;;;;;;;17.11;26.95;103342.94;5093789;28;20027;-74
2021/03/06 10:52:47;;;;;;;14.93;3.40;;;;;;;16.54;27.19;103340.13;5103114;28;20128;-74
2021/03/06 10:55:13;;;;;;;13.20;3.22;;;;;;;16.37;27.27;103343.38;5105194;28;20062;-73
2021/03/06 10:57:51;;;;;;;15.52;3.20;;;;;;;16.96;27.12;103338.25;5093093;28;20024;-62
2021/03/06 11:00:23;;;;;;;16.02;3.55;;;;;;;17.59;26.40;103341.91;5094929;28;20027;-62
2021/03/06 11:03:00;;;;;;;14.77;3.15;;;;;;;18.33;25.59;103340.22;5077233;28;20469;-74
2021/03/06 11:05:26;;;;;;;13.23;3.30;;;;;;;17.99;23.74;103339.81;5101539;28;20034;-74
2021/03/06 11:07:53;;;;;;;12.05;3.10;;;;;;;18.20;23.21;103335.59;5102629;28;20055;-74
2021/03/06 11:10:20;;;;;;;13.90;3.60;;;;;;;17.07;25.49;103331.31;5103915;28;20020;-74
2021/03/06 11:13:01;;;;;;;15.00;3.45;;;;;;;16.70;26.39;103330.63;5103824;28;20023;-74
2021/03/06 11:15:28;;;;;;;11.48;3.00;;;;;;;17.12;24.29;103326.03;5093176;28;20020;-74
2021/03/06 11:18:00;;;;;;;13.75;3.03;;;;;;;17.76;24.57;103335.00;5104768;28;20099;-73
2021/03/06 11:20:36;;;;;;;15.45;3.60;;;;;;;17.00;24.35;103324.06;5101943;28;20035;-72
2021/03/06 11:23:03;;;;;;;15.63;3.42;;;;;;;16.08;26.57;103329.44;5097479;28;20035;-73
2021/03/06 11:25:29;;;;;;;17.83;3.40;;;;;;;15.03;26.98;103326.09;5093009;28;20467;-73
2021/03/06 11:28:00;;;;;;;13.45;3.05;;;;;;;15.59;26.83;103323.00;5104668;28;20076;-67
2021/03/06 11:30:27;;;;;;;14.68;3.40;;;;;;;13.95;28.03;103311.66;5101838;28;20032;-65